createdAt,value
2023-03-20T00:02:24.286Z,100488.66
2023-03-20T00:05:35.883Z,100489.41
2023-03-20T00:08:34.901Z,100484.28
2023-03-20T00:11:50.103Z,100484.63
2023-03-20T00:14:49.521Z,100487.23
2023-03-20T00:17:54.594Z,100477.90
2023-03-20T00:20:54.399Z,100469.74
2023-03-20T00:23:42.758Z,100467.89
2023-03-20T00:26:52.042Z,100465.08
2023-03-20T00:29:50.768Z,100467.11
2023-03-20T00:32:57.678Z,100466.61
2023-03-20T00:36:05.930Z,100460.52
2023-03-20T00:39:12.651Z,100458.09
2023-03-20T00:42:19.541Z,100457.53
2023-03-20T00:45:23.166Z,100458.45
2023-03-20T00:48:31.128Z,100461.69
2023-03-20T00:51:37.879Z,100459.21
2023-03-20T00:54:44.630Z,100461.33
2023-03-20T00:57:54.795Z,100457.17
2023-03-20T01:00:59.570Z,100460.84
2023-03-20T01:04:05.896Z,100475.62
2023-03-20T01:07:12.259Z,100471.45
2023-03-20T01:10:18.944Z,100471.07
2023-03-20T01:13:43.051Z,100467.00
2023-03-20T01:16:48.395Z,100465.29
2023-03-20T01:19:54.378Z,100465.52
2023-03-20T01:22:53.963Z,100460.11
2023-03-20T01:26:00.297Z,100463.54
2023-03-20T01:29:00.012Z,100457.02
2023-03-20T01:32:05.636Z,100465.73
2023-03-20T01:35:11.511Z,100466.33
2023-03-20T01:38:16.411Z,100468.93
2023-03-20T01:41:28.758Z,100467.08
2023-03-20T01:44:39.027Z,100468.30
2023-03-20T01:47:45.621Z,100461.19
2023-03-20T01:50:52.797Z,100471.83
2023-03-20T01:54:02.959Z,100462.48
2023-03-20T01:57:14.797Z,100464.67
2023-03-20T02:00:24.413Z,100463.05
2023-03-20T02:03:30.193Z,100470.53
2023-03-20T02:06:50.922Z,100474.31
2023-03-20T02:10:10.846Z,100470.74
2023-03-20T02:13:23.499Z,100469.88
2023-03-20T02:16:29.912Z,100466.90
2023-03-20T02:20:50.588Z,100466.77
2023-03-20T02:24:36.918Z,100469.81
2023-03-20T02:27:57.493Z,100466.61
2023-03-20T02:31:51.001Z,100469.16
2023-03-20T02:35:19.031Z,100468.92
2023-03-20T02:38:53.605Z,100464.34
2023-03-20T02:42:04.940Z,100459.31
2023-03-20T02:45:42.517Z,100457.66
2023-03-20T02:49:12.420Z,100462.08
2023-03-20T02:52:39.509Z,100458.81
2023-03-20T02:56:07.046Z,100465.52
2023-03-20T02:59:28.281Z,100457.48
2023-03-20T03:02:56.403Z,100461.77
2023-03-20T03:06:15.313Z,100461.19
2023-03-20T03:09:32.892Z,100465.28
2023-03-20T03:12:48.287Z,100463.50
2023-03-20T03:15:56.395Z,100455.63
2023-03-20T03:19:04.391Z,100456.10
2023-03-20T03:22:04.507Z,100457.59
2023-03-20T03:25:03.871Z,100453.17
2023-03-20T03:28:45.791Z,100449.70
2023-03-20T03:31:52.626Z,100452.27
2023-03-20T03:34:51.375Z,100447.73
2023-03-20T03:38:39.879Z,100448.39
2023-03-20T03:41:56.294Z,100452.08
2023-03-20T03:45:16.013Z,100451.24
2023-03-20T03:48:34.575Z,100453.87
2023-03-20T03:51:43.172Z,100454.81
2023-03-20T03:55:18.780Z,100450.95
2023-03-20T03:58:39.962Z,100455.10
2023-03-20T04:01:45.383Z,100458.06
2023-03-20T04:04:53.993Z,100454.89
2023-03-20T04:07:56.351Z,100461.28
2023-03-20T04:11:01.684Z,100453.81
2023-03-20T04:14:09.536Z,100457.00
2023-03-20T04:17:15.948Z,100459.83
2023-03-20T04:20:23.421Z,100466.45
2023-03-20T04:23:29.998Z,100464.39
2023-03-20T04:26:36.529Z,100467.36
2023-03-20T04:29:42.961Z,100468.45
2023-03-20T04:32:50.346Z,100463.80
2023-03-20T04:36:00.582Z,100473.75
2023-03-20T04:39:00.628Z,100481.36
2023-03-20T04:41:59.067Z,100477.70
2023-03-20T04:45:05.560Z,100472.79
2023-03-20T04:48:10.808Z,100479.41
2023-03-20T04:51:17.583Z,100471.80
2023-03-20T04:54:24.719Z,100476.11
2023-03-20T04:57:30.218Z,100479.90
2023-03-20T05:00:35.687Z,100486.18
2023-03-20T05:03:42.216Z,100489.73
2023-03-20T05:06:47.782Z,100482.84
2023-03-20T05:09:55.632Z,100490.23
2023-03-20T05:13:03.177Z,100486.41
2023-03-20T05:16:12.765Z,100488.26
2023-03-20T05:19:20.784Z,100481.37
2023-03-20T05:22:29.172Z,100486.54
2023-03-20T05:25:42.201Z,100485.30
2023-03-20T05:29:01.313Z,100481.13
2023-03-20T05:32:25.818Z,100477.09
2023-03-20T05:35:35.996Z,100482.37
2023-03-20T05:38:44.401Z,100484.58
2023-03-20T05:42:01.916Z,100484.34
2023-03-20T05:44:48.968Z,100492.31
2023-03-20T05:47:44.338Z,100486.91
2023-03-20T05:50:49.948Z,100487.90
2023-03-20T05:54:00.553Z,100489.74
2023-03-20T05:57:07.800Z,100491.56
2023-03-20T06:00:31.837Z,100489.98
2023-03-20T06:03:55.436Z,100484.80
2023-03-20T06:07:02.632Z,100483.83
2023-03-20T06:09:57.817Z,100483.58
2023-03-20T06:13:04.294Z,100489.72
2023-03-20T06:16:10.759Z,100492.27
2023-03-20T06:19:16.749Z,100490.69
2023-03-20T06:22:23.202Z,100497.58
2023-03-20T06:25:29.559Z,100499.91
2023-03-20T06:28:35.161Z,100499.78
2023-03-20T06:31:40.882Z,100506.77
2023-03-20T06:34:48.190Z,100502.23
2023-03-20T06:37:54.264Z,100505.14
2023-03-20T06:40:59.724Z,100503.19
2023-03-20T06:44:06.231Z,100505.50
2023-03-20T06:47:14.580Z,100509.91
2023-03-20T06:50:21.040Z,100501.42
2023-03-20T06:53:27.192Z,100499.97
2023-03-20T06:56:35.052Z,100494.70
2023-03-20T06:59:39.817Z,100494.20
2023-03-20T07:02:45.447Z,100505.14
2023-03-20T07:05:53.270Z,100495.08
2023-03-20T07:08:59.298Z,100498.76
2023-03-20T07:12:05.178Z,100496.86
2023-03-20T07:15:10.468Z,100500.20
2023-03-20T07:18:17.237Z,100500.32
2023-03-20T07:21:16.157Z,100493.66
2023-03-20T07:24:23.268Z,100499.33
2023-03-20T07:27:28.954Z,100503.03
2023-03-20T07:30:35.145Z,100494.39
2023-03-20T07:33:41.239Z,100501.00
2023-03-20T07:36:49.015Z,100495.70
2023-03-20T07:39:55.393Z,100503.78
2023-03-20T07:43:07.943Z,100502.02
2023-03-20T07:46:22.750Z,100507.86
2023-03-20T07:49:31.061Z,100509.43
2023-03-20T07:52:39.807Z,100505.94
2023-03-20T07:55:44.763Z,100511.10
2023-03-20T07:58:51.684Z,100513.59
2023-03-20T08:01:57.065Z,100517.40
2023-03-20T08:05:03.526Z,100509.23
2023-03-20T08:08:02.958Z,100511.28
2023-03-20T08:11:07.986Z,100513.35
2023-03-20T08:14:13.468Z,100508.63
2023-03-20T08:17:21.189Z,100508.39
2023-03-20T08:20:27.066Z,100502.05
2023-03-20T08:23:32.092Z,100508.44
2023-03-20T08:26:37.988Z,100503.61
2023-03-20T08:29:43.366Z,100507.67
2023-03-20T08:32:49.426Z,100503.79
2023-03-20T08:35:56.130Z,100502.38
2023-03-20T08:39:03.694Z,100498.84
2023-03-20T08:42:10.338Z,100488.44
2023-03-20T08:45:17.799Z,100495.48
2023-03-20T08:48:23.590Z,100496.34
2023-03-20T08:51:29.742Z,100493.73
2023-03-20T08:54:35.401Z,100489.99
2023-03-20T08:57:42.979Z,100492.13
2023-03-20T09:00:48.719Z,100486.12
2023-03-20T09:03:54.261Z,100480.96
2023-03-20T09:07:00.031Z,100477.83
2023-03-20T09:10:05.505Z,100478.48
2023-03-20T09:13:27.977Z,100477.83
2023-03-20T09:16:15.004Z,100471.50
2023-03-20T09:19:21.201Z,100473.09
2023-03-20T09:22:30.217Z,100468.67
2023-03-20T09:25:35.225Z,100472.23
2023-03-20T09:28:42.399Z,100468.65
2023-03-20T09:31:47.171Z,100469.08
2023-03-20T09:34:52.968Z,100476.73
2023-03-20T09:37:59.067Z,100474.52
2023-03-20T09:41:16.719Z,100462.73
2023-03-20T09:44:55.453Z,100460.73
2023-03-20T09:48:27.644Z,100460.73
2023-03-20T09:51:56.937Z,100456.22
2023-03-20T09:55:05.300Z,100455.45
2023-03-20T09:58:14.875Z,100442.96
2023-03-20T10:01:21.569Z,100444.79
2023-03-20T10:04:27.990Z,100441.44
2023-03-20T10:07:33.941Z,100448.19
2023-03-20T10:10:50.763Z,100442.11
2023-03-20T10:14:04.088Z,100443.25
2023-03-20T10:17:36.670Z,100439.33
2023-03-20T10:20:50.882Z,100447.52
2023-03-20T10:24:21.255Z,100456.22
2023-03-20T10:27:49.821Z,100441.42
2023-03-20T10:31:07.542Z,100447.77
2023-03-20T10:34:28.156Z,100432.12
2023-03-20T10:37:31.071Z,100431.58
2023-03-20T10:40:35.562Z,100434.02
2023-03-20T10:43:43.286Z,100430.99
2023-03-20T10:46:57.077Z,100426.19
2023-03-20T10:50:11.901Z,100428.11
2023-03-20T10:53:17.693Z,100419.95
2023-03-20T10:56:28.482Z,100411.70
2023-03-20T10:59:41.785Z,100410.39
2023-03-20T11:02:46.373Z,100407.06
2023-03-20T11:06:08.490Z,100406.90
2023-03-20T11:09:00.133Z,100408.42
2023-03-20T11:12:02.445Z,100404.45
2023-03-20T11:15:11.599Z,100404.63
2023-03-20T11:18:21.534Z,100399.14
2023-03-20T11:21:42.322Z,100392.09
2023-03-20T11:24:51.913Z,100383.72
2023-03-20T11:27:57.151Z,100386.99
2023-03-20T11:31:05.225Z,100386.13
2023-03-20T11:34:26.370Z,100390.81
2023-03-20T11:37:46.411Z,100381.77
2023-03-20T11:40:55.119Z,100381.94
2023-03-20T11:44:01.093Z,100382.73
2023-03-20T11:47:29.390Z,100380.39
2023-03-20T11:50:47.550Z,100374.41
2023-03-20T11:54:07.789Z,100373.47
2023-03-20T11:57:13.991Z,100364.94
2023-03-20T12:00:39.788Z,100360.84
2023-03-20T12:03:54.153Z,100363.20
2023-03-20T12:07:13.592Z,100358.22
2023-03-20T12:10:22.137Z,100356.59
2023-03-20T12:13:35.302Z,100359.38
2023-03-20T12:16:44.393Z,100361.26
2023-03-20T12:19:50.552Z,100357.20
2023-03-20T12:23:30.336Z,100355.81
2023-03-20T12:26:52.820Z,100350.13
2023-03-20T12:30:06.656Z,100356.31
2023-03-20T12:33:18.650Z,100352.36
2023-03-20T12:36:32.630Z,100341.39
2023-03-20T12:39:41.572Z,100346.67
2023-03-20T12:43:10.518Z,100340.72
2023-03-20T12:46:40.911Z,100342.79
2023-03-20T12:50:06.116Z,100330.37
2023-03-20T12:53:59.276Z,100337.30
2023-03-20T12:57:20.091Z,100325.83
2023-03-20T13:00:44.798Z,100330.55
2023-03-20T13:04:07.907Z,100323.41
2023-03-20T13:07:19.028Z,100318.55
2023-03-20T13:10:22.819Z,100313.88
2023-03-20T13:13:54.742Z,100318.09
2023-03-20T13:17:21.944Z,100316.95
2023-03-20T13:20:41.013Z,100313.72
2023-03-20T13:24:06.346Z,100310.31
2023-03-20T13:27:23.521Z,100307.08
2023-03-20T13:30:50.002Z,100316.13
2023-03-20T13:34:15.206Z,100306.52
2023-03-20T13:37:28.980Z,100313.11
2023-03-20T13:40:40.860Z,100311.91
2023-03-20T13:44:07.861Z,100304.42
2023-03-20T13:47:20.549Z,100311.61
2023-03-20T13:51:01.566Z,100304.46
2023-03-20T13:54:42.917Z,100306.30
2023-03-20T13:58:19.327Z,100308.00
2023-03-20T14:01:31.839Z,100294.34
2023-03-20T14:04:31.412Z,100294.69
2023-03-20T14:07:51.893Z,100292.68
2023-03-20T14:10:58.393Z,100290.88
2023-03-20T14:14:06.025Z,100290.41
2023-03-20T14:17:21.844Z,100293.73
2023-03-20T14:20:35.433Z,100287.22
2023-03-20T14:23:54.202Z,100284.37
2023-03-20T14:27:04.461Z,100287.21
2023-03-20T14:30:10.132Z,100281.20
2023-03-20T14:33:24.166Z,100276.36
2023-03-20T14:36:36.301Z,100273.17
2023-03-20T14:39:50.461Z,100272.72
2023-03-20T14:43:13.699Z,100267.17
2023-03-20T14:46:48.497Z,100264.41
2023-03-20T14:50:08.764Z,100267.77
2023-03-20T14:53:34.841Z,100266.06
2023-03-20T14:56:45.899Z,100265.25
2023-03-20T14:59:52.040Z,100264.36
2023-03-20T15:02:58.819Z,100257.67
2023-03-20T15:06:05.339Z,100255.37
2023-03-20T15:09:20.338Z,100255.50
2023-03-20T15:12:28.978Z,100251.23
2023-03-20T15:15:40.451Z,100255.61
2023-03-20T15:18:48.530Z,100256.63
2023-03-20T15:21:55.609Z,100258.26
2023-03-20T15:25:11.834Z,100267.95
2023-03-20T15:28:21.133Z,100276.72
2023-03-20T15:32:02.900Z,100275.87
2023-03-20T15:34:56.787Z,100269.81
2023-03-20T15:38:03.748Z,100272.79
2023-03-20T15:41:09.321Z,100276.20
2023-03-20T15:44:37.010Z,100278.45
2023-03-20T15:47:43.394Z,100280.64
2023-03-20T15:50:53.530Z,100274.16
2023-03-20T15:54:01.695Z,100269.11
2023-03-20T15:57:10.640Z,100275.33
2023-03-20T16:00:15.657Z,100275.70
2023-03-20T16:03:25.546Z,100278.52
2023-03-20T16:06:34.440Z,100281.44
2023-03-20T16:09:40.472Z,100273.39
2023-03-20T16:12:46.882Z,100272.39
2023-03-20T16:15:53.126Z,100274.25
2023-03-20T16:18:59.874Z,100280.52
2023-03-20T16:22:12.538Z,100281.60
2023-03-20T16:25:18.254Z,100286.20
2023-03-20T16:28:25.866Z,100285.56
2023-03-20T16:31:49.929Z,100282.95
2023-03-20T16:34:55.462Z,100284.43
2023-03-20T16:38:14.987Z,100290.02
2023-03-20T16:41:33.128Z,100292.67
2023-03-20T16:44:43.658Z,100296.42
2023-03-20T16:47:52.750Z,100294.77
2023-03-20T16:51:01.385Z,100298.98
2023-03-20T16:54:02.800Z,100296.98
2023-03-20T16:57:10.433Z,100300.25
2023-03-20T17:00:22.161Z,100311.17
2023-03-20T17:03:34.272Z,100308.92
2023-03-20T17:06:51.695Z,100306.52
2023-03-20T17:10:27.139Z,100301.30
2023-03-20T17:13:31.846Z,100300.30
2023-03-20T17:16:37.108Z,100301.16
2023-03-20T17:19:43.259Z,100307.71
2023-03-20T17:22:49.767Z,100303.34
2023-03-20T17:25:56.526Z,100303.98
2023-03-20T17:29:03.213Z,100308.94
2023-03-20T17:32:08.658Z,100310.08
2023-03-20T17:35:13.959Z,100316.13
2023-03-20T17:38:20.516Z,100313.41
2023-03-20T17:41:31.400Z,100312.63
2023-03-20T17:44:36.879Z,100312.95
2023-03-20T17:47:42.742Z,100310.75
2023-03-20T17:50:49.262Z,100307.58
2023-03-20T17:53:50.403Z,100313.62
2023-03-20T17:56:56.587Z,100305.68
2023-03-20T18:00:02.053Z,100316.11
2023-03-20T18:03:09.127Z,100315.28
2023-03-20T18:06:14.729Z,100323.92
2023-03-20T18:09:12.844Z,100322.08
2023-03-20T18:12:00.471Z,100323.16
2023-03-20T18:14:54.893Z,100319.30
2023-03-20T18:17:55.664Z,100313.38
2023-03-20T18:21:04.495Z,100309.82
2023-03-20T18:24:09.153Z,100313.88
2023-03-20T18:27:15.669Z,100313.16
2023-03-20T18:30:29.562Z,100317.97
2023-03-20T18:33:35.453Z,100310.45
2023-03-20T18:36:41.310Z,100313.40
2023-03-20T18:39:48.480Z,100309.36
2023-03-20T18:42:54.139Z,100305.06
2023-03-20T18:45:59.516Z,100304.10
2023-03-20T18:49:06.123Z,100311.35
2023-03-20T18:52:13.222Z,100304.48
2023-03-20T18:55:19.617Z,100305.95
2023-03-20T18:58:38.043Z,100293.58
2023-03-20T19:01:44.690Z,100300.56
2023-03-20T19:04:49.298Z,100293.70
2023-03-20T19:07:57.231Z,100291.98
2023-03-20T19:11:02.845Z,100292.84
2023-03-20T19:14:09.278Z,100292.62
2023-03-20T19:17:15.227Z,100292.13
2023-03-20T19:20:23.221Z,100291.02
2023-03-20T19:23:30.206Z,100281.92
2023-03-20T19:26:35.998Z,100282.31
2023-03-20T19:29:41.510Z,100277.78
2023-03-20T19:32:49.800Z,100283.16
2023-03-20T19:36:02.703Z,100280.73
2023-03-20T19:39:02.759Z,100281.08
2023-03-20T19:42:34.220Z,100280.36
2023-03-20T19:45:15.928Z,100285.38
2023-03-20T19:48:50.095Z,100281.59
2023-03-20T19:51:41.842Z,100271.17
2023-03-20T19:55:01.868Z,100277.55
2023-03-20T19:57:58.056Z,100277.17
2023-03-20T20:01:13.995Z,100271.16
2023-03-20T20:04:11.674Z,100270.30
2023-03-20T20:07:56.188Z,100273.60
2023-03-20T20:10:27.976Z,100272.75
2023-03-20T20:13:47.109Z,100271.77
2023-03-20T20:16:44.571Z,100272.39
2023-03-20T20:19:50.298Z,100261.59
2023-03-20T20:22:55.990Z,100263.67
2023-03-20T20:26:01.955Z,100260.25
2023-03-20T20:29:09.369Z,100260.23
2023-03-20T20:32:15.923Z,100257.31
2023-03-20T20:35:44.008Z,100257.53
2023-03-20T20:38:49.305Z,100253.26
2023-03-20T20:41:38.993Z,100254.47
2023-03-20T20:44:44.964Z,100249.93
2023-03-20T20:47:51.510Z,100253.25
2023-03-20T20:50:57.968Z,100246.27
2023-03-20T20:54:04.482Z,100246.64
2023-03-20T20:57:09.947Z,100243.33
2023-03-20T21:00:15.771Z,100238.05
2023-03-20T21:03:21.036Z,100233.52
2023-03-20T21:06:44.303Z,100222.47
2023-03-20T21:09:32.552Z,100223.33
2023-03-20T21:12:52.030Z,100223.45
2023-03-20T21:15:45.918Z,100228.84
2023-03-20T21:18:52.137Z,100230.81
2023-03-20T21:21:58.153Z,100223.08
2023-03-20T21:25:14.350Z,100227.03
2023-03-20T21:28:07.274Z,100222.23
2023-03-20T21:34:10.665Z,100217.94
2023-03-20T21:38:15.779Z,100213.54
2023-03-20T21:40:25.076Z,100212.55
2023-03-20T21:43:31.702Z,100212.91
2023-03-20T21:50:31.166Z,100212.06
2023-03-20T21:53:46.313Z,100210.22
2023-03-20T21:59:47.336Z,100210.95
2023-03-20T22:02:23.795Z,100212.19
2023-03-20T22:09:45.235Z,100207.89
2023-03-20T22:18:42.250Z,100213.39
2023-03-20T22:24:59.403Z,100213.12
2023-03-20T22:28:02.676Z,100214.86
2023-03-20T22:37:43.785Z,100222.19
2023-03-20T22:44:04.784Z,100217.23
2023-03-20T22:46:39.998Z,100211.61
2023-03-20T22:49:19.835Z,100208.28
2023-03-20T22:52:37.872Z,100210.97
2023-03-20T22:55:31.647Z,100201.42
2023-03-20T22:58:37.701Z,100208.51
2023-03-20T23:01:44.266Z,100205.45
2023-03-20T23:04:49.772Z,100205.73
2023-03-20T23:07:57.167Z,100201.55
2023-03-20T23:11:05.395Z,100202.91
2023-03-20T23:14:20.562Z,100207.17
2023-03-20T23:17:18.778Z,100197.98
2023-03-20T23:20:26.282Z,100197.86
2023-03-20T23:23:32.276Z,100184.25
2023-03-20T23:26:37.897Z,100192.41
2023-03-20T23:29:44.934Z,100192.55
2023-03-20T23:32:53.769Z,100192.06
2023-03-20T23:36:14.053Z,100192.47
2023-03-20T23:39:07.215Z,100191.21
2023-03-20T23:42:29.228Z,100187.02
2023-03-20T23:45:21.379Z,100184.52
2023-03-20T23:48:27.308Z,100179.96
2023-03-20T23:51:32.873Z,100182.02
2023-03-20T23:54:39.343Z,100178.81
2023-03-20T23:57:44.796Z,100175.39
